Time;durP1;ratioP1;P1;durP2;ratioP2;P2;SDS_P1;SDS_P2;PMS_P1;PMS_P2;Temp;Humidity;BMP_temperature;BMP_pressure;BME280_temperature;BME280_humidity;BME280_pressure;Samples;Min_cycle;Max_cycle;Signal;HPM_P1;HPM_P2
2021/10/27 00:01:11;;;;;;;7.03;2.83;;;;;;;;;;5070675;28;20039;-66
2021/10/27 00:03:37;;;;;;;6.75;3.20;;;;;;;;;;5069671;28;20247;-67
2021/10/27 00:06:02;;;;;;;11.82;3.35;;;;;;;;;;5070860;28;20032;-67
2021/10/27 00:08:28;;;;;;;10.95;3.25;;;;;;;;;;5066002;28;20029;-66
2021/10/27 00:10:53;;;;;;;11.05;3.20;;;;;;;;;;5060662;28;20020;-65
2021/10/27 00:13:19;;;;;;;7.65;2.70;;;;;;;;;;5069080;28;20024;-67
2021/10/27 00:15:44;;;;;;;6.15;2.95;;;;;;;;;;5065359;28;20016;-65
2021/10/27 00:18:09;;;;;;;10.50;2.90;;;;;;;;;;5069347;28;20044;-67
2021/10/27 00:20:35;;;;;;;5.78;2.40;;;;;;;;;;5069256;28;20100;-66
2021/10/27 00:23:00;;;;;;;7.15;2.75;;;;;;;;;;5069342;28;20107;-67
2021/10/27 00:25:25;;;;;;;10.00;3.22;;;;;;;;;;5069322;28;20116;-67
2021/10/27 00:27:51;;;;;;;9.07;3.43;;;;;;;;;;5068581;28;20031;-67
2021/10/27 00:30:16;;;;;;;9.07;3.65;;;;;;;;;;5069596;28;20263;-66
2021/10/27 00:32:41;;;;;;;11.88;3.40;;;;;;;;;;5067562;28;20460;-67
2021/10/27 00:35:07;;;;;;;9.05;3.00;;;;;;;;;;5051022;28;20761;-67
2021/10/27 00:37:33;;;;;;;7.55;3.80;;;;;;;;;;5070298;28;20025;-67
2021/10/27 00:39:58;;;;;;;8.10;4.43;;;;;;;;;;5069392;28;20016;-66
2021/10/27 00:42:25;;;;;;;10.23;3.30;;;;;;;;;;5069417;28;20840;-67
2021/10/27 00:44:50;;;;;;;6.95;3.33;;;;;;;;;;5069293;28;20021;-66
2021/10/27 00:47:16;;;;;;;7.07;3.08;;;;;;;;;;5068021;28;20070;-67
2021/10/27 00:49:42;;;;;;;11.77;3.60;;;;;;;;;;5069856;28;20028;-67
2021/10/27 00:52:10;;;;;;;9.57;3.00;;;;;;;;;;5069201;28;20473;-67
2021/10/27 00:54:36;;;;;;;5.35;2.50;;;;;;;;;;5070437;28;20020;-66
2021/10/27 00:57:02;;;;;;;9.68;2.83;;;;;;;;;;5070001;28;20108;-66
2021/10/27 00:59:28;;;;;;;5.50;3.20;;;;;;;;;;5068664;28;20058;-67
2021/10/27 01:01:53;;;;;;;9.45;2.65;;;;;;;;;;5068598;28;20032;-67
2021/10/27 01:04:20;;;;;;;6.97;2.65;;;;;;;;;;5069776;28;20119;-66
2021/10/27 01:06:46;;;;;;;10.80;2.70;;;;;;;;;;5082768;28;20048;-65
2021/10/27 01:09:11;;;;;;;4.00;2.50;;;;;;;;;;5071079;28;20036;-65
2021/10/27 01:11:37;;;;;;;7.95;2.83;;;;;;;;;;5068510;28;20025;-65
2021/10/27 01:14:05;;;;;;;9.15;2.72;;;;;;;;;;5069170;28;20036;-66
2021/10/27 01:16:31;;;;;;;9.23;2.78;;;;;;;;;;5073785;28;20024;-67
2021/10/27 01:18:56;;;;;;;6.82;2.90;;;;;;;;;;5079170;28;20430;-67
2021/10/27 01:21:22;;;;;;;6.18;2.30;;;;;;;;;;5069668;28;20049;-66
2021/10/27 01:23:47;;;;;;;5.80;2.58;;;;;;;;;;5068805;28;20051;-65
2021/10/27 01:26:13;;;;;;;5.38;2.65;;;;;;;;;;5068764;28;20047;-67
2021/10/27 01:28:39;;;;;;;5.72;2.22;;;;;;;;;;5069973;28;20096;-66
2021/10/27 01:31:04;;;;;;;8.77;1.90;;;;;;;;;;5069267;28;20074;-67
2021/10/27 01:33:29;;;;;;;7.78;2.63;;;;;;;;;;5069274;28;20020;-67
2021/10/27 01:35:55;;;;;;;3.85;2.17;;;;;;;;;;5067762;28;20017;-67
2021/10/27 01:38:20;;;;;;;5.73;2.13;;;;;;;;;;5050957;28;20023;-66
2021/10/27 01:40:45;;;;;;;4.70;2.60;;;;;;;;;;5052902;28;20636;-67
2021/10/27 01:43:10;;;;;;;6.25;2.40;;;;;;;;;;5072716;28;20270;-67
2021/10/27 01:45:35;;;;;;;5.23;2.10;;;;;;;;;;5063396;28;20032;-67
2021/10/27 01:48:01;;;;;;;2.67;2.00;;;;;;;;;;5071757;28;20346;-67
2021/10/27 01:50:26;;;;;;;4.50;2.28;;;;;;;;;;5072229;28;20535;-67
2021/10/27 01:52:51;;;;;;;4.53;2.22;;;;;;;;;;5071571;28;20024;-67
2021/10/27 01:55:17;;;;;;;6.43;2.25;;;;;;;;;;5072605;28;20024;-66
2021/10/27 01:57:42;;;;;;;4.10;2.00;;;;;;;;;;5073187;28;20092;-65
2021/10/27 02:00:08;;;;;;;7.78;2.80;;;;;;;;;;5072692;28;20013;-66
2021/10/27 02:02:33;;;;;;;6.78;1.95;;;;;;;;;;5071256;28;20020;-65
2021/10/27 02:04:58;;;;;;;7.22;2.35;;;;;;;;;;5072005;28;20039;-67
2021/10/27 02:07:23;;;;;;;8.07;2.40;;;;;;;;;;5071710;28;20020;-66
2021/10/27 02:09:49;;;;;;;8.43;1.88;;;;;;;;;;5071475;28;20028;-66
2021/10/27 02:12:14;;;;;;;6.18;2.38;;;;;;;;;;5071411;28;20028;-67
2021/10/27 02:14:39;;;;;;;4.53;2.50;;;;;;;;;;5071927;28;20421;-65
2021/10/27 02:17:05;;;;;;;3.53;1.88;;;;;;;;;;5080230;28;20366;-67
2021/10/27 02:19:30;;;;;;;4.93;1.88;;;;;;;;;;5077242;28;20016;-64
2021/10/27 02:21:55;;;;;;;4.60;2.13;;;;;;;;;;5072362;28;20098;-67
2021/10/27 02:24:21;;;;;;;2.60;1.67;;;;;;;;;;5072508;28;20265;-66
2021/10/27 02:26:47;;;;;;;5.88;2.88;;;;;;;;;;5072673;28;20061;-67
2021/10/27 02:29:12;;;;;;;3.88;2.33;;;;;;;;;;5072612;28;20020;-67
2021/10/27 02:31:37;;;;;;;3.88;1.85;;;;;;;;;;5071289;28;20032;-67
2021/10/27 02:34:02;;;;;;;8.13;3.25;;;;;;;;;;5072004;28;20458;-66
2021/10/27 02:36:27;;;;;;;4.75;2.40;;;;;;;;;;5072135;28;20032;-67
2021/10/27 02:38:53;;;;;;;6.43;2.58;;;;;;;;;;5072395;28;20380;-67
2021/10/27 02:41:18;;;;;;;5.03;2.20;;;;;;;;;;5072329;28;20175;-67
2021/10/27 02:43:43;;;;;;;7.23;2.20;;;;;;;;;;5068807;28;20024;-67
2021/10/27 02:46:09;;;;;;;6.50;2.22;;;;;;;;;;5071504;28;20825;-67
2021/10/27 02:48:34;;;;;;;4.03;1.88;;;;;;;;;;5073096;28;20029;-66
2021/10/27 02:51:00;;;;;;;4.38;2.35;;;;;;;;;;5072770;28;20013;-66
2021/10/27 02:53:25;;;;;;;7.80;2.30;;;;;;;;;;5071415;28;20060;-66
2021/10/27 02:55:50;;;;;;;7.50;1.83;;;;;;;;;;5075877;28;20094;-67
2021/10/27 02:58:15;;;;;;;7.93;2.60;;;;;;;;;;5071287;28;20024;-66
2021/10/27 03:00:40;;;;;;;8.43;1.83;;;;;;;;;;5082926;28;20039;-65
2021/10/27 03:03:06;;;;;;;4.15;1.77;;;;;;;;;;5073455;28;20039;-65
2021/10/27 03:05:31;;;;;;;4.28;2.10;;;;;;;;;;5071267;28;20062;-67
2021/10/27 03:07:56;;;;;;;5.10;2.05;;;;;;;;;;5071474;28;20027;-66
2021/10/27 03:10:22;;;;;;;7.15;1.90;;;;;;;;;;5071318;28;20036;-65
2021/10/27 03:12:47;;;;;;;4.28;2.03;;;;;;;;;;5071519;28;20024;-66
2021/10/27 03:15:12;;;;;;;8.38;1.90;;;;;;;;;;5071538;28;20496;-65
2021/10/27 03:17:37;;;;;;;13.75;2.30;;;;;;;;;;5070299;28;20021;-66
2021/10/27 03:20:03;;;;;;;3.90;1.95;;;;;;;;;;5070397;28;20036;-65
2021/10/27 03:22:28;;;;;;;4.18;2.15;;;;;;;;;;5069518;28;20032;-66
2021/10/27 03:24:53;;;;;;;14.32;2.00;;;;;;;;;;5070557;28;20469;-65
2021/10/27 03:27:19;;;;;;;6.50;2.20;;;;;;;;;;5070195;28;20358;-65
2021/10/27 03:29:44;;;;;;;4.25;2.25;;;;;;;;;;5071076;28;20016;-66
2021/10/27 03:32:09;;;;;;;5.05;1.67;;;;;;;;;;5070804;28;20021;-65
2021/10/27 03:34:35;;;;;;;6.95;1.80;;;;;;;;;;5070291;28;20012;-66
2021/10/27 03:37:01;;;;;;;6.00;2.10;;;;;;;;;;5069867;28;20276;-67
2021/10/27 03:39:26;;;;;;;7.18;2.05;;;;;;;;;;5054532;28;20033;-65
2021/10/27 03:41:52;;;;;;;3.13;2.13;;;;;;;;;;5051015;28;20358;-65
2021/10/27 03:44:17;;;;;;;4.03;1.92;;;;;;;;;;5071633;28;20285;-65
2021/10/27 03:46:42;;;;;;;4.85;1.80;;;;;;;;;;5081722;28;20021;-66
2021/10/27 03:49:07;;;;;;;5.97;1.77;;;;;;;;;;5070917;28;20027;-65
2021/10/27 03:51:33;;;;;;;7.00;1.88;;;;;;;;;;5070913;28;20023;-65
2021/10/27 03:53:58;;;;;;;3.15;2.42;;;;;;;;;;5070279;28;20036;-66
2021/10/27 03:56:23;;;;;;;5.05;1.92;;;;;;;;;;5069708;28;20017;-65
2021/10/27 03:58:50;;;;;;;16.98;2.90;;;;;;;;;;5068246;28;20103;-66
2021/10/27 04:01:15;;;;;;;5.97;2.10;;;;;;;;;;5068372;28;20507;-66
2021/10/27 04:03:40;;;;;;;4.05;2.22;;;;;;;;;;5064805;28;20025;-67
2021/10/27 04:06:05;;;;;;;5.45;2.20;;;;;;;;;;5070164;28;20016;-66
2021/10/27 04:08:31;;;;;;;6.38;2.47;;;;;;;;;;5075084;28;20651;-65
2021/10/27 04:10:56;;;;;;;6.28;1.77;;;;;;;;;;5068743;28;20039;-65
2021/10/27 04:13:22;;;;;;;10.18;3.28;;;;;;;;;;5071132;28;20032;-66
2021/10/27 04:15:47;;;;;;;8.95;2.22;;;;;;;;;;5069772;28;20035;-66
2021/10/27 04:18:12;;;;;;;6.47;2.05;;;;;;;;;;5070500;28;20016;-65
2021/10/27 04:20:38;;;;;;;4.97;2.05;;;;;;;;;;5070238;28;20108;-65
2021/10/27 04:23:04;;;;;;;4.30;2.33;;;;;;;;;;5069920;28;20031;-66
2021/10/27 04:25:29;;;;;;;7.35;2.10;;;;;;;;;;5069339;28;20028;-65
2021/10/27 04:27:54;;;;;;;4.28;2.40;;;;;;;;;;5069299;28;20384;-66
2021/10/27 04:30:19;;;;;;;4.85;2.30;;;;;;;;;;5070277;28;20466;-66
2021/10/27 04:32:45;;;;;;;8.50;3.50;;;;;;;;;;5069875;28;20020;-65
2021/10/27 04:35:10;;;;;;;3.38;2.13;;;;;;;;;;5068915;28;20020;-67
2021/10/27 04:37:39;;;;;;;5.78;2.50;;;;;;;;;;5069490;28;20031;-67
2021/10/27 04:40:08;;;;;;;4.22;2.08;;;;;;;;;;5064737;28;20017;-67
2021/10/27 04:42:34;;;;;;;4.30;2.42;;;;;;;;;;5059286;28;20028;-67
2021/10/27 04:44:59;;;;;;;3.58;1.92;;;;;;;;;;5057197;28;20021;-67
2021/10/27 04:47:24;;;;;;;3.88;2.35;;;;;;;;;;5055991;28;20037;-67
2021/10/27 04:49:49;;;;;;;5.05;2.13;;;;;;;;;;5059339;28;20496;-65
2021/10/27 04:52:15;;;;;;;3.72;2.28;;;;;;;;;;5067258;28;20088;-67
2021/10/27 04:54:41;;;;;;;7.70;3.05;;;;;;;;;;5070005;28;20159;-67
2021/10/27 04:57:06;;;;;;;7.60;2.88;;;;;;;;;;5069611;28;20158;-67
2021/10/27 04:59:39;;;;;;;4.50;2.70;;;;;;;;;;5068090;28;20019;-66
2021/10/27 05:02:04;;;;;;;11.15;3.05;;;;;;;;;;5068875;28;20119;-67
2021/10/27 05:04:30;;;;;;;6.17;2.73;;;;;;;;;;5068817;28;20529;-66
2021/10/27 05:06:55;;;;;;;7.53;2.33;;;;;;;;;;5068641;28;20267;-66
2021/10/27 05:09:20;;;;;;;11.73;3.97;;;;;;;;;;5069264;28;20024;-66
2021/10/27 05:11:45;;;;;;;4.60;2.35;;;;;;;;;;5070204;28;20103;-67
2021/10/27 05:14:11;;;;;;;9.75;4.25;;;;;;;;;;5071610;28;20013;-65
2021/10/27 05:16:36;;;;;;;13.30;3.40;;;;;;;;;;5073853;28;20457;-65
2021/10/27 05:19:02;;;;;;;4.10;2.20;;;;;;;;;;5073118;28;20062;-65
2021/10/27 05:21:27;;;;;;;6.85;2.92;;;;;;;;;;5072530;28;20266;-65
2021/10/27 05:23:52;;;;;;;5.10;2.60;;;;;;;;;;5072506;28;20107;-64
2021/10/27 05:26:18;;;;;;;7.53;2.10;;;;;;;;;;5072815;28;20269;-65
2021/10/27 05:28:43;;;;;;;8.75;3.40;;;;;;;;;;5073580;28;20259;-67
2021/10/27 05:31:08;;;;;;;4.93;2.30;;;;;;;;;;5073340;28;20495;-64
2021/10/27 05:33:34;;;;;;;7.47;3.22;;;;;;;;;;5073313;28;20469;-66
2021/10/27 05:35:59;;;;;;;6.57;2.95;;;;;;;;;;5072720;28;20106;-66
2021/10/27 05:38:25;;;;;;;8.30;2.87;;;;;;;;;;5071431;28;20466;-65
2021/10/27 05:40:50;;;;;;;7.97;2.75;;;;;;;;;;5054827;28;20667;-64
2021/10/27 05:43:15;;;;;;;6.13;3.05;;;;;;;;;;5072754;28;20081;-65
2021/10/27 05:45:41;;;;;;;4.15;2.50;;;;;;;;;;5073061;28;20054;-67
2021/10/27 05:48:08;;;;;;;5.38;2.35;;;;;;;;;;5071973;28;20024;-67
2021/10/27 05:55:42;;;;;;;7.20;2.97;;;;;;;;;;5067608;28;20039;-67
2021/10/27 05:58:12;;;;;;;5.57;2.92;;;;;;;;;;5071361;28;20017;-67
2021/10/27 06:00:37;;;;;;;6.73;2.10;;;;;;;;;;5071651;28;20008;-67
2021/10/27 06:03:03;;;;;;;8.68;3.08;;;;;;;;;;5072009;28;20762;-65
2021/10/27 06:05:28;;;;;;;4.25;2.28;;;;;;;;;;5072783;28;20020;-65
2021/10/27 06:07:54;;;;;;;7.55;2.75;;;;;;;;;;5072932;28;20497;-65
2021/10/27 06:10:20;;;;;;;13.32;3.50;;;;;;;;;;5072246;28;20465;-66
2021/10/27 06:12:48;;;;;;;7.50;3.30;;;;;;;;;;5071433;28;20074;-65
2021/10/27 06:15:13;;;;;;;4.68;2.40;;;;;;;;;;5071627;28;20062;-65
2021/10/27 06:17:38;;;;;;;7.93;3.53;;;;;;;;;;5072074;28;20021;-64
2021/10/27 06:20:04;;;;;;;12.68;3.28;;;;;;;;;;5071550;28;20024;-64
2021/10/27 06:22:29;;;;;;;8.45;3.42;;;;;;;;;;5072579;28;20090;-66
2021/10/27 06:24:55;;;;;;;6.15;2.72;;;;;;;;;;5072466;28;20041;-65
2021/10/27 06:27:20;;;;;;;9.98;3.97;;;;;;;;;;5071614;28;20028;-66
2021/10/27 06:29:55;;;;;;;17.15;3.50;;;;;;;;;;5071326;28;20432;-65
2021/10/27 06:32:30;;;;;;;7.43;3.97;;;;;;;;;;5071269;28;20016;-62
2021/10/27 06:35:01;;;;;;;10.35;4.93;;;;;;;;;;5071616;28;20053;-66
2021/10/27 06:48:09;;;;;;;12.90;4.40;;;;;;;;;;5068481;28;20043;-63
2021/10/27 06:50:34;;;;;;;13.00;4.32;;;;;;;;;;5059467;28;20393;-64
2021/10/27 06:52:59;;;;;;;5.78;2.40;;;;;;;;;;5051645;28;20032;-64
2021/10/27 06:55:25;;;;;;;8.88;3.85;;;;;;;;;;5052010;28;20017;-64
2021/10/27 06:57:50;;;;;;;9.00;4.32;;;;;;;;;;5052114;28;20075;-62
2021/10/27 07:00:21;;;;;;;15.73;4.68;;;;;;;;;;5051542;28;20031;-65
2021/10/27 07:16:23;;;;;;;8.68;4.72;;;;;;;;;;5071509;28;20040;-65
2021/10/27 07:18:48;;;;;;;5.43;2.90;;;;;;;;;;5070694;28;20025;-65
2021/10/27 07:21:13;;;;;;;13.00;4.60;;;;;;;;;;5070343;28;20420;-65
2021/10/27 07:23:40;;;;;;;5.43;2.45;;;;;;;;;;5070482;28;20105;-64
2021/10/27 07:26:06;;;;;;;5.68;3.08;;;;;;;;;;5070328;28;20017;-64
2021/10/27 07:28:32;;;;;;;4.35;2.17;;;;;;;;;;5070406;28;20379;-63
2021/10/27 07:30:58;;;;;;;10.63;3.97;;;;;;;;;;5070206;28;20373;-65
2021/10/27 07:33:25;;;;;;;11.23;4.45;;;;;;;;;;5070731;28;20397;-63
2021/10/27 07:35:54;;;;;;;12.32;4.53;;;;;;;;;;5071645;28;20078;-63
2021/10/27 07:41:05;;;;;;;7.93;3.08;;;;;;;;;;5070952;28;20024;-64
2021/10/27 07:43:31;;;;;;;9.23;3.63;;;;;;;;;;5070223;28;20020;-63
2021/10/27 07:45:57;;;;;;;8.05;3.85;;;;;;;;;;5071090;28;20022;-63
2021/10/27 07:48:23;;;;;;;9.02;3.40;;;;;;;;;;5070880;28;20108;-62
2021/10/27 07:50:48;;;;;;;8.43;3.47;;;;;;;;;;5070752;28;20028;-64
2021/10/27 07:53:14;;;;;;;6.45;2.95;;;;;;;;;;5070055;28;20035;-64
2021/10/27 07:55:43;;;;;;;9.00;3.72;;;;;;;;;;5070048;28;20473;-64
2021/10/27 07:58:09;;;;;;;17.90;4.75;;;;;;;;;;5069819;28;20022;-65
2021/10/27 08:00:34;;;;;;;10.55;3.83;;;;;;;;;;5070427;28;20096;-64
2021/10/27 08:03:03;;;;;;;12.07;3.72;;;;;;;;;;5070116;28;20024;-64
2021/10/27 08:05:29;;;;;;;13.05;5.43;;;;;;;;;;5068682;28;20032;-65
2021/10/27 08:07:57;;;;;;;14.38;3.80;;;;;;;;;;5069519;28;20369;-63
2021/10/27 08:10:22;;;;;;;14.60;3.30;;;;;;;;;;5069981;28;20028;-64
2021/10/27 08:12:49;;;;;;;9.63;3.27;;;;;;;;;;5070322;28;20027;-66
2021/10/27 08:15:14;;;;;;;10.27;4.32;;;;;;;;;;5070289;28;20251;-64
2021/10/27 08:17:40;;;;;;;8.35;4.43;;;;;;;;;;5070267;28;20066;-64
2021/10/27 08:20:05;;;;;;;17.38;4.35;;;;;;;;;;5069557;28;21530;-64
2021/10/27 08:22:31;;;;;;;16.45;4.95;;;;;;;;;;5069133;28;20025;-65
2021/10/27 08:24:57;;;;;;;9.38;4.30;;;;;;;;;;5069531;28;20032;-64
2021/10/27 08:27:23;;;;;;;8.80;2.25;;;;;;;;;;5069742;28;20043;-63
2021/10/27 08:29:48;;;;;;;4.05;2.08;;;;;;;;;;5069609;28;20025;-64
2021/10/27 08:34:47;;;;;;;9.85;4.18;;;;;;;;;;5070559;28;20024;-64
2021/10/27 08:37:12;;;;;;;;;;;;;;;;;;5071036;28;20031;-64
2021/10/27 08:39:38;;;;;;;10.55;3.22;;;;;;;;;;5070604;28;19904;-66
2021/10/27 08:42:03;;;;;;;6.85;3.40;;;;;;;;;;5069950;28;20339;-64
2021/10/27 08:44:29;;;;;;;11.25;3.53;;;;;;;;;;5069222;28;20028;-64
2021/10/27 08:46:54;;;;;;;8.20;2.58;;;;;;;;;;5069623;28;20505;-66
2021/10/27 08:49:25;;;;;;;9.55;3.33;;;;;;;;;;5071098;28;20012;-64
2021/10/27 08:51:50;;;;;;;;;;;;;;;;;;5072896;28;20038;-65
2021/10/27 08:54:16;;;;;;;7.35;3.78;;;;;;;;;;5073970;28;19912;-64
2021/10/27 08:56:44;;;;;;;6.72;3.50;;;;;;;;;;5070018;28;20052;-64
2021/10/27 09:07:11;;;;;;;12.60;2.83;;;;;;;;;;5074320;28;20453;-67
2021/10/27 09:15:23;;;;;;;5.32;2.67;;;;;;;;;;5073260;28;20043;-64
2021/10/27 09:37:44;;;;;;;5.97;3.30;;;;;;;;;;5073799;28;20070;-65
2021/10/27 09:40:42;;;;;;;7.40;2.67;;;;;;;;;;5073475;28;20047;-65
2021/10/27 10:05:02;;;;;;;7.47;2.40;;;;;;;;;;5072488;28;20086;-65
2021/10/27 10:07:28;;;;;;;4.32;2.10;;;;;;;;;;5072790;28;20116;-65
2021/10/27 10:09:54;;;;;;;11.20;2.88;;;;;;;;;;5072845;28;20525;-66
2021/10/27 10:12:19;;;;;;;8.52;2.78;;;;;;;;;;5072762;28;20016;-64
2021/10/27 10:14:49;;;;;;;7.27;2.77;;;;;;;;;;5072782;28;20484;-64
2021/10/27 10:17:14;;;;;;;6.68;2.33;;;;;;;;;;5073132;28;20251;-65
2021/10/27 10:19:41;;;;;;;6.38;2.35;;;;;;;;;;5071489;28;20051;-66
2021/10/27 10:22:25;;;;;;;12.68;3.08;;;;;;;;;;5071937;28;20016;-65
2021/10/27 10:24:50;;;;;;;4.40;1.90;;;;;;;;;;5070396;28;20755;-64
2021/10/27 10:27:33;;;;;;;10.73;2.15;;;;;;;;;;5071245;28;20089;-64
2021/10/27 10:30:02;;;;;;;6.78;2.55;;;;;;;;;;5071486;28;20031;-64
2021/10/27 10:32:32;;;;;;;13.10;2.58;;;;;;;;;;5071496;28;20428;-66
2021/10/27 10:35:12;;;;;;;6.22;2.55;;;;;;;;;;5062395;28;20035;-66
2021/10/27 10:38:19;;;;;;;8.88;2.92;;;;;;;;;;5069607;28;20027;-64
2021/10/27 10:43:26;;;;;;;8.65;2.53;;;;;;;;;;5071911;28;20039;-65
2021/10/27 11:00:28;;;;;;;5.90;2.10;;;;;;;;;;5070651;28;20187;-66
2021/10/27 11:03:40;;;;;;;7.50;2.63;;;;;;;;;;5068652;28;20040;-66
2021/10/27 11:40:03;;;;;;;1.77;0.98;;;;;;;;;;4989120;28;20025;-66
2021/10/27 11:47:35;;;;;;;4.07;1.10;;;;;;;;;;5070165;28;20396;-65
2021/10/27 11:50:00;;;;;;;1.95;1.20;;;;;;;;;;5070472;28;20489;-65
2021/10/27 11:52:29;;;;;;;2.90;1.45;;;;;;;;;;5070828;28;20012;-67
2021/10/27 11:54:56;;;;;;;1.33;0.83;;;;;;;;;;5069937;28;20096;-65
2021/10/27 11:57:31;;;;;;;2.70;1.30;;;;;;;;;;5070607;28;20830;-65
2021/10/27 11:59:56;;;;;;;3.25;1.23;;;;;;;;;;5070840;28;20016;-64
2021/10/27 12:02:22;;;;;;;3.97;1.88;;;;;;;;;;5070928;28;20024;-65
2021/10/27 12:04:47;;;;;;;2.97;0.90;;;;;;;;;;5070038;28;20466;-65
2021/10/27 12:07:32;;;;;;;11.27;2.05;;;;;;;;;;5069654;28;20425;-63
2021/10/27 12:10:13;;;;;;;1.42;0.90;;;;;;;;;;5069575;28;20035;-65
2021/10/27 12:12:54;;;;;;;;;;;;;;;;;;5059462;28;20566;-64
2021/10/27 12:15:45;;;;;;;9.50;2.42;;;;;;;;;;5067753;28;20288;-66
2021/10/27 12:18:11;;;;;;;4.53;1.80;;;;;;;;;;5069467;28;20085;-65
2021/10/27 12:20:36;;;;;;;10.70;1.52;;;;;;;;;;5069531;28;20170;-65
2021/10/27 12:23:02;;;;;;;5.78;1.25;;;;;;;;;;5068594;28;20517;-65
2021/10/27 12:25:28;;;;;;;10.35;1.52;;;;;;;;;;5069839;28;20056;-65
2021/10/27 12:28:00;;;;;;;6.93;2.10;;;;;;;;;;5069344;28;20024;-65
2021/10/27 12:30:25;;;;;;;5.45;1.38;;;;;;;;;;5070598;28;20020;-64
2021/10/27 12:32:52;;;;;;;5.43;1.63;;;;;;;;;;5070385;28;20027;-65
2021/10/27 12:35:17;;;;;;;3.67;1.60;;;;;;;;;;5070442;28;20044;-65
2021/10/27 12:40:28;;;;;;;5.82;1.83;;;;;;;;;;5070688;28;20738;-65
2021/10/27 12:42:58;;;;;;;6.22;1.60;;;;;;;;;;5070279;28;20100;-64
2021/10/27 12:45:42;;;;;;;2.45;1.33;;;;;;;;;;5069836;28;20060;-65
2021/10/27 12:48:11;;;;;;;6.50;1.65;;;;;;;;;;5068934;28;20484;-66
2021/10/27 12:50:38;;;;;;;3.53;1.25;;;;;;;;;;5070399;28;20457;-65
2021/10/27 12:53:06;;;;;;;7.60;1.42;;;;;;;;;;5069766;28;20112;-67
2021/10/27 12:55:34;;;;;;;6.13;1.60;;;;;;;;;;5069530;28;20477;-66
2021/10/27 12:58:11;;;;;;;9.20;1.85;;;;;;;;;;5069642;28;20155;-65
2021/10/27 13:01:54;;;;;;;7.38;1.67;;;;;;;;;;5067876;28;20507;-66
2021/10/27 13:06:22;;;;;;;1.70;0.88;;;;;;;;;;5066278;28;20032;-65
2021/10/27 13:09:13;;;;;;;6.63;1.88;;;;;;;;;;5069367;28;20059;-65
2021/10/27 13:22:44;;;;;;;4.30;1.52;;;;;;;;;;5069126;28;20036;-66
2021/10/27 13:33:13;;;;;;;2.35;1.20;;;;;;;;;;5064161;28;20036;-64
2021/10/27 13:35:39;;;;;;;5.70;1.35;;;;;;;;;;5059738;28;20009;-65
2021/10/27 13:38:05;;;;;;;4.80;1.52;;;;;;;;;;5068338;28;20020;-65
2021/10/27 13:40:32;;;;;;;1.42;0.80;;;;;;;;;;5072570;28;20024;-64
2021/10/27 13:43:01;;;;;;;6.30;1.77;;;;;;;;;;5071971;28;20070;-64
2021/10/27 13:45:36;;;;;;;1.65;0.95;;;;;;;;;;5072633;28;20036;-65
2021/10/27 13:48:10;;;;;;;7.80;1.45;;;;;;;;;;5073340;28;20032;-65
2021/10/27 14:07:29;;;;;;;6.57;1.95;;;;;;;;;;5071982;28;20062;-67
2021/10/27 14:12:57;;;;;;;5.47;1.40;;;;;;;;;;5027397;28;20040;-66
2021/10/27 14:18:39;;;;;;;7.60;2.17;;;;;;;;;;4981015;28;20061;-66
2021/10/27 15:20:38;;;;;;;4.75;1.77;;;;;;;;;;5069240;28;20460;-66
2021/10/27 15:25:50;;;;;;;3.20;0.77;;;;;;;;;;5071059;28;20492;-67
2021/10/27 15:33:39;;;;;;;4.45;1.60;;;;;;;;;;5071014;28;20103;-65
2021/10/27 15:36:20;;;;;;;3.72;1.80;;;;;;;;;;5069662;28;20024;-65
2021/10/27 15:52:00;;;;;;;4.03;1.55;;;;;;;;;;5070915;28;20031;-65
2021/10/27 15:54:25;;;;;;;7.60;2.08;;;;;;;;;;5069243;28;20056;-66
2021/10/27 15:56:51;;;;;;;4.80;1.33;;;;;;;;;;5066919;28;20074;-64
2021/10/27 15:59:17;;;;;;;5.10;2.15;;;;;;;;;;5070130;28;20097;-64
2021/10/27 16:01:44;;;;;;;4.35;1.98;;;;;;;;;;5070788;28;20024;-65
2021/10/27 16:04:09;;;;;;;9.38;3.08;;;;;;;;;;5070527;28;20031;-67
2021/10/27 16:06:40;;;;;;;3.88;1.90;;;;;;;;;;5070296;28;20021;-67
2021/10/27 16:09:08;;;;;;;8.70;1.85;;;;;;;;;;5069551;28;20140;-67
2021/10/27 16:11:33;;;;;;;3.92;2.20;;;;;;;;;;5052705;28;20035;-67
2021/10/27 16:13:59;;;;;;;11.77;2.17;;;;;;;;;;5070436;28;20021;-68
2021/10/27 16:16:24;;;;;;;7.22;2.50;;;;;;;;;;5069894;28;20060;-66
2021/10/27 16:18:50;;;;;;;8.23;2.13;;;;;;;;;;5066469;28;20380;-66
2021/10/27 16:21:15;;;;;;;7.53;2.58;;;;;;;;;;5070252;28;20025;-68
2021/10/27 16:23:40;;;;;;;4.70;2.15;;;;;;;;;;5070538;28;20024;-66
2021/10/27 16:26:06;;;;;;;5.65;2.03;;;;;;;;;;5070546;28;20035;-66
2021/10/27 16:28:31;;;;;;;3.42;1.77;;;;;;;;;;5069956;28;20036;-67
2021/10/27 16:30:56;;;;;;;12.68;4.38;;;;;;;;;;5069731;28;20020;-66
2021/10/27 16:33:22;;;;;;;5.60;2.33;;;;;;;;;;5070202;28;20040;-67
2021/10/27 16:35:48;;;;;;;7.25;1.92;;;;;;;;;;5052185;28;20352;-66
2021/10/27 16:38:13;;;;;;;5.35;2.00;;;;;;;;;;5069103;28;20025;-67
2021/10/27 16:40:39;;;;;;;7.27;2.50;;;;;;;;;;5069422;28;20066;-67
2021/10/27 16:43:04;;;;;;;19.42;3.42;;;;;;;;;;5068513;28;20711;-67
2021/10/27 16:45:30;;;;;;;8.43;2.85;;;;;;;;;;5070594;28;20020;-65
2021/10/27 16:47:55;;;;;;;4.88;2.47;;;;;;;;;;5069355;28;20024;-67
2021/10/27 16:50:21;;;;;;;6.63;1.92;;;;;;;;;;5070272;28;20024;-65
2021/10/27 16:52:46;;;;;;;7.03;2.33;;;;;;;;;;5069934;28;20021;-65
2021/10/27 16:55:18;;;;;;;8.65;1.90;;;;;;;;;;5070203;28;20531;-65
2021/10/27 16:57:45;;;;;;;8.57;3.03;;;;;;;;;;5069592;28;20019;-66
2021/10/27 17:00:10;;;;;;;11.18;2.67;;;;;;;;;;5068778;28;20012;-65
2021/10/27 17:02:36;;;;;;;6.43;2.95;;;;;;;;;;5069735;28;20047;-65
2021/10/27 17:05:01;;;;;;;8.93;3.63;;;;;;;;;;5070287;28;20052;-66
2021/10/27 17:07:27;;;;;;;11.07;3.10;;;;;;;;;;5069553;28;20751;-66
2021/10/27 17:09:55;;;;;;;5.93;3.13;;;;;;;;;;5070614;28;20046;-66
2021/10/27 17:12:20;;;;;;;7.90;2.70;;;;;;;;;;5073332;28;20016;-66
2021/10/27 17:14:45;;;;;;;8.10;3.50;;;;;;;;;;5073207;28;20016;-65
2021/10/27 17:17:11;;;;;;;5.45;2.35;;;;;;;;;;5073544;28;20137;-67
2021/10/27 17:19:36;;;;;;;7.80;3.13;;;;;;;;;;5074206;28;20107;-65
2021/10/27 17:22:02;;;;;;;7.20;2.88;;;;;;;;;;5074050;28;20028;-70
2021/10/27 17:24:27;;;;;;;3.35;2.50;;;;;;;;;;5073691;28;20096;-64
2021/10/27 17:26:56;;;;;;;9.18;3.00;;;;;;;;;;5073386;28;20154;-66
2021/10/27 17:29:22;;;;;;;5.68;2.80;;;;;;;;;;5073166;28;20069;-67
2021/10/27 17:31:47;;;;;;;9.10;3.33;;;;;;;;;;5073012;28;20017;-68
2021/10/27 17:34:12;;;;;;;10.13;3.28;;;;;;;;;;5073508;28;20395;-67
2021/10/27 17:36:37;;;;;;;7.75;2.95;;;;;;;;;;5073863;28;20017;-67
2021/10/27 17:39:04;;;;;;;7.35;3.22;;;;;;;;;;5073592;28;20508;-66
2021/10/27 17:41:29;;;;;;;5.68;3.10;;;;;;;;;;5072927;28;20012;-66
2021/10/27 17:43:55;;;;;;;13.85;3.97;;;;;;;;;;5072326;28;20043;-66
2021/10/27 17:46:23;;;;;;;10.10;3.30;;;;;;;;;;5073257;28;20052;-65
2021/10/27 17:49:00;;;;;;;7.10;3.53;;;;;;;;;;5071847;28;20539;-64
2021/10/27 17:51:27;;;;;;;9.65;3.92;;;;;;;;;;5072970;28;20021;-67
2021/10/27 17:59:20;;;;;;;10.23;4.60;;;;;;;;;;5072718;28;20031;-67
2021/10/27 18:01:46;;;;;;;9.25;3.47;;;;;;;;;;5073184;28;20451;-67
2021/10/27 18:04:11;;;;;;;15.90;4.07;;;;;;;;;;5072931;28;20025;-65
2021/10/27 18:06:37;;;;;;;10.85;3.90;;;;;;;;;;5073353;28;20465;-66
2021/10/27 18:09:04;;;;;;;7.05;3.20;;;;;;;;;;5072186;28;20024;-66
2021/10/27 18:11:31;;;;;;;5.25;2.67;;;;;;;;;;5072068;28;20031;-67
2021/10/27 18:14:20;;;;;;;11.00;4.47;;;;;;;;;;5071682;28;20066;-66
2021/10/27 18:16:50;;;;;;;14.40;4.60;;;;;;;;;;5071345;28;20056;-67
2021/10/27 18:22:23;;;;;;;9.52;4.53;;;;;;;;;;5063058;28;20461;-66
2021/10/27 18:38:31;;;;;;;18.58;5.57;;;;;;;;;;5072013;28;20027;-67
2021/10/27 18:41:05;;;;;;;14.10;4.57;;;;;;;;;;5072984;28;20046;-67
2021/10/27 18:43:30;;;;;;;10.35;4.70;;;;;;;;;;5072456;28;20032;-67
2021/10/27 18:45:59;;;;;;;12.15;5.13;;;;;;;;;;5072385;28;20024;-67
2021/10/27 18:48:24;;;;;;;11.85;3.35;;;;;;;;;;5072300;28;20024;-67
2021/10/27 18:51:08;;;;;;;9.07;4.82;;;;;;;;;;5072309;28;20114;-66
2021/10/27 18:56:12;;;;;;;11.35;5.28;;;;;;;;;;5072104;28;20094;-67
2021/10/27 18:58:51;;;;;;;14.40;4.95;;;;;;;;;;5072210;28;20549;-67
2021/10/27 19:12:02;;;;;;;11.95;5.70;;;;;;;;;;5071745;28;20028;-67
2021/10/27 19:16:53;;;;;;;13.05;5.22;;;;;;;;;;5071305;28;20103;-66
2021/10/27 19:19:18;;;;;;;13.13;5.78;;;;;;;;;;5071799;28;20477;-67
2021/10/27 19:21:44;;;;;;;15.52;6.18;;;;;;;;;;5072123;28;20388;-66
2021/10/27 19:24:15;;;;;;;16.67;5.85;;;;;;;;;;5071337;28;20021;-66
2021/10/27 19:26:49;;;;;;;16.55;5.75;;;;;;;;;;5071895;28;20021;-66
2021/10/27 19:29:27;;;;;;;14.38;6.45;;;;;;;;;;5071537;28;20016;-66
2021/10/27 19:32:05;;;;;;;15.55;5.57;;;;;;;;;;5071473;28;20077;-66
2021/10/27 19:35:43;;;;;;;13.35;5.20;;;;;;;;;;5071296;28;20598;-67
2021/10/27 20:07:58;;;;;;;12.15;6.32;;;;;;;;;;5059325;28;20024;-66
2021/10/27 20:13:41;;;;;;;14.20;6.43;;;;;;;;;;5070658;28;19951;-66
2021/10/27 20:15:59;;;;;;;14.55;5.95;;;;;;;;;;5059788;28;20048;-66
2021/10/27 20:18:37;;;;;;;14.48;7.05;;;;;;;;;;5070468;28;20107;-67
2021/10/27 20:26:39;;;;;;;15.38;7.22;;;;;;;;;;5070679;28;20027;-66
2021/10/27 20:29:20;;;;;;;12.80;6.88;;;;;;;;;;5070155;28;20427;-67
2021/10/27 20:53:37;;;;;;;14.90;7.25;;;;;;;;;;5070144;28;20031;-67
2021/10/27 20:56:06;;;;;;;13.77;7.78;;;;;;;;;;5070460;28;20016;-66